Arkoma, Oklahoma
Current Conditions -  °F | °C
As of 8:53 PM on Thursday 18 Dec 2014 (Local Time) from KFSM Reporting Station
Overcast Overcast  
Wind Chill: 42°   Ceiling: 2400
Heat Index: 42°   Visibility: 9mi
Dew Point: 38°   Wind: 3mph
Humidity: 85%   Direction: 80°E
Pressure: 30.22"   Gusts: NA
Location:  35.35°N, 94.43°W
Report Text: KFSM 190253Z 08003KT 9SM OVC024 06/03 A3022 RMK AO2 SLP237 T00560033 51011
Loading
Personal Weather Stations






























Interactive Weather Map New forecast layout! Learn more

10-Day Weather Forecast

Advertisements
Track Severe Weather on mobile